sensor_id;sensor_type;location;lat;lon;timestamp;temperature;humidity
32769;DHT22;23049;54.304;8.826;2022-12-18T00:01:26;-2.50;99.90
32769;DHT22;23049;54.304;8.826;2022-12-18T00:03:52;-2.60;99.90
32769;DHT22;23049;54.304;8.826;2022-12-18T00:06:18;-2.70;99.90
32769;DHT22;23049;54.304;8.826;2022-12-18T00:08:44;-2.80;99.90
32769;DHT22;23049;54.304;8.826;2022-12-18T00:11:16;-2.80;99.90
32769;DHT22;23049;54.304;8.826;2022-12-18T00:13:42;-2.90;99.90
32769;DHT22;23049;54.304;8.826;2022-12-18T00:16:12;-2.80;99.90
32769;DHT22;23049;54.304;8.826;2022-12-18T00:18:38;-2.80;99.90
32769;DHT22;23049;54.304;8.826;2022-12-18T00:21:05;-2.80;99.90
32769;DHT22;23049;54.304;8.826;2022-12-18T00:23:31;-2.70;99.90
32769;DHT22;23049;54.304;8.826;2022-12-18T00:26:00;-2.80;99.90
32769;DHT22;23049;54.304;8.826;2022-12-18T00:28:26;-2.90;99.90
32769;DHT22;23049;54.304;8.826;2022-12-18T00:30:59;-3.00;99.90
32769;DHT22;23049;54.304;8.826;2022-12-18T00:33:24;-3.10;99.90
32769;DHT22;23049;54.304;8.826;2022-12-18T00:35:50;-3.00;99.90
32769;DHT22;23049;54.304;8.826;2022-12-18T00:38:15;-3.00;99.90
32769;DHT22;23049;54.304;8.826;2022-12-18T00:40:41;-2.90;99.90
32769;DHT22;23049;54.304;8.826;2022-12-18T00:43:10;-2.80;99.90
32769;DHT22;23049;54.304;8.826;2022-12-18T00:45:35;-2.90;99.90
32769;DHT22;23049;54.304;8.826;2022-12-18T00:48:01;-3.00;99.90
32769;DHT22;23049;54.304;8.826;2022-12-18T00:50:26;-2.90;99.90
32769;DHT22;23049;54.304;8.826;2022-12-18T00:52:52;-2.90;99.90
32769;DHT22;23049;54.304;8.826;2022-12-18T00:55:17;-3.00;99.90
32769;DHT22;23049;54.304;8.826;2022-12-18T00:57:43;-3.00;99.90
32769;DHT22;23049;54.304;8.826;2022-12-18T01:00:10;-3.00;99.90
32769;DHT22;23049;54.304;8.826;2022-12-18T01:02:36;-2.90;99.90
32769;DHT22;23049;54.304;8.826;2022-12-18T01:05:02;-2.90;99.90
32769;DHT22;23049;54.304;8.826;2022-12-18T01:07:27;-2.90;99.90
32769;DHT22;23049;54.304;8.826;2022-12-18T01:09:53;-2.90;99.90
32769;DHT22;23049;54.304;8.826;2022-12-18T01:12:18;-3.10;99.90
32769;DHT22;23049;54.304;8.826;2022-12-18T01:14:44;-3.20;99.90
32769;DHT22;23049;54.304;8.826;2022-12-18T01:17:09;-3.30;99.90
32769;DHT22;23049;54.304;8.826;2022-12-18T01:19:35;-3.30;99.90
32769;DHT22;23049;54.304;8.826;2022-12-18T01:22:00;-3.30;99.90
32769;DHT22;23049;54.304;8.826;2022-12-18T01:24:26;-3.30;99.90
32769;DHT22;23049;54.304;8.826;2022-12-18T01:26:51;-3.30;99.90
32769;DHT22;23049;54.304;8.826;2022-12-18T01:29:17;-3.30;99.90
32769;DHT22;23049;54.304;8.826;2022-12-18T01:31:42;-3.30;99.90
32769;DHT22;23049;54.304;8.826;2022-12-18T01:34:08;-3.30;99.90
32769;DHT22;23049;54.304;8.826;2022-12-18T01:36:34;-3.20;99.90
32769;DHT22;23049;54.304;8.826;2022-12-18T01:39:01;-3.20;99.90
32769;DHT22;23049;54.304;8.826;2022-12-18T01:41:28;-3.20;99.90
32769;DHT22;23049;54.304;8.826;2022-12-18T01:46:58;-3.10;99.90
32769;DHT22;23049;54.304;8.826;2022-12-18T01:49:24;-3.20;99.90
32769;DHT22;23049;54.304;8.826;2022-12-18T01:51:49;-3.20;99.90
32769;DHT22;23049;54.304;8.826;2022-12-18T01:54:15;-3.20;99.90
32769;DHT22;23049;54.304;8.826;2022-12-18T01:56:41;-3.20;99.90
32769;DHT22;23049;54.304;8.826;2022-12-18T01:59:06;-3.20;99.90
32769;DHT22;23049;54.304;8.826;2022-12-18T02:01:33;-3.10;99.90
32769;DHT22;23049;54.304;8.826;2022-12-18T02:04:18;-3.10;99.90
32769;DHT22;23049;54.304;8.826;2022-12-18T02:06:44;-3.10;99.90
32769;DHT22;23049;54.304;8.826;2022-12-18T02:09:14;-3.00;99.90
32769;DHT22;23049;54.304;8.826;2022-12-18T02:17:01;-3.10;99.90
32769;DHT22;23049;54.304;8.826;2022-12-18T02:24:36;-3.10;99.90
32769;DHT22;23049;54.304;8.826;2022-12-18T02:27:07;-3.10;99.90
32769;DHT22;23049;54.304;8.826;2022-12-18T02:32:02;-3.10;99.90
32769;DHT22;23049;54.304;8.826;2022-12-18T02:34:30;-3.10;99.90
32769;DHT22;23049;54.304;8.826;2022-12-18T02:36:57;-3.00;99.90
32769;DHT22;23049;54.304;8.826;2022-12-18T02:39:23;-2.90;99.90
32769;DHT22;23049;54.304;8.826;2022-12-18T02:41:50;-3.00;99.90
32769;DHT22;23049;54.304;8.826;2022-12-18T02:44:16;-3.10;99.90
32769;DHT22;23049;54.304;8.826;2022-12-18T02:46:46;-3.10;99.90
32769;DHT22;23049;54.304;8.826;2022-12-18T02:49:35;-3.20;99.90
32769;DHT22;23049;54.304;8.826;2022-12-18T02:56:56;-3.30;99.90
32769;DHT22;23049;54.304;8.826;2022-12-18T03:02:26;-3.30;99.90
32769;DHT22;23049;54.304;8.826;2022-12-18T03:04:57;-3.30;99.90
32769;DHT22;23049;54.304;8.826;2022-12-18T03:07:26;-3.30;99.90
32769;DHT22;23049;54.304;8.826;2022-12-18T03:09:52;-3.30;99.90
32769;DHT22;23049;54.304;8.826;2022-12-18T03:15:09;-3.20;99.90
32769;DHT22;23049;54.304;8.826;2022-12-18T03:17:34;-3.30;99.90
32769;DHT22;23049;54.304;8.826;2022-12-18T03:20:05;-3.30;99.90
32769;DHT22;23049;54.304;8.826;2022-12-18T03:22:33;-3.30;99.90
32769;DHT22;23049;54.304;8.826;2022-12-18T03:25:00;-3.30;99.90
32769;DHT22;23049;54.304;8.826;2022-12-18T03:27:26;-3.30;99.90
32769;DHT22;23049;54.304;8.826;2022-12-18T03:30:00;-3.20;99.90
32769;DHT22;23049;54.304;8.826;2022-12-18T03:32:56;-3.20;99.90
32769;DHT22;23049;54.304;8.826;2022-12-18T03:35:22;-3.20;99.90
32769;DHT22;23049;54.304;8.826;2022-12-18T03:37:48;-3.10;99.90
32769;DHT22;23049;54.304;8.826;2022-12-18T03:40:14;-3.10;99.90
32769;DHT22;23049;54.304;8.826;2022-12-18T03:45:09;-3.10;99.90
32769;DHT22;23049;54.304;8.826;2022-12-18T03:47:39;-3.10;99.90
32769;DHT22;23049;54.304;8.826;2022-12-18T03:50:10;-3.00;99.90
32769;DHT22;23049;54.304;8.826;2022-12-18T03:55:09;-3.00;99.90
32769;DHT22;23049;54.304;8.826;2022-12-18T03:57:34;-3.00;99.90
32769;DHT22;23049;54.304;8.826;2022-12-18T04:00:06;-3.00;99.90
32769;DHT22;23049;54.304;8.826;2022-12-18T04:02:33;-3.00;99.90
32769;DHT22;23049;54.304;8.826;2022-12-18T04:05:00;-3.00;99.90
32769;DHT22;23049;54.304;8.826;2022-12-18T04:07:27;-3.00;99.90
32769;DHT22;23049;54.304;8.826;2022-12-18T04:09:53;-3.00;99.90
32769;DHT22;23049;54.304;8.826;2022-12-18T04:12:19;-3.00;99.90
32769;DHT22;23049;54.304;8.826;2022-12-18T04:14:45;-3.00;99.90
32769;DHT22;23049;54.304;8.826;2022-12-18T04:17:10;-2.90;99.90
32769;DHT22;23049;54.304;8.826;2022-12-18T04:19:36;-2.90;99.90
32769;DHT22;23049;54.304;8.826;2022-12-18T04:22:01;-2.90;99.90
32769;DHT22;23049;54.304;8.826;2022-12-18T04:24:27;-2.90;99.90
32769;DHT22;23049;54.304;8.826;2022-12-18T04:26:52;-2.80;99.90
32769;DHT22;23049;54.304;8.826;2022-12-18T04:29:18;-2.90;99.90
32769;DHT22;23049;54.304;8.826;2022-12-18T04:31:43;-2.80;99.90
32769;DHT22;23049;54.304;8.826;2022-12-18T04:34:09;-2.80;99.90
32769;DHT22;23049;54.304;8.826;2022-12-18T04:36:34;-2.80;99.90
32769;DHT22;23049;54.304;8.826;2022-12-18T04:39:00;-2.80;99.90
32769;DHT22;23049;54.304;8.826;2022-12-18T04:41:25;-2.70;99.90
32769;DHT22;23049;54.304;8.826;2022-12-18T04:43:51;-2.70;99.90
32769;DHT22;23049;54.304;8.826;2022-12-18T04:46:16;-2.60;99.90
32769;DHT22;23049;54.304;8.826;2022-12-18T04:48:44;-2.60;99.90
32769;DHT22;23049;54.304;8.826;2022-12-18T04:51:10;-2.60;99.90
32769;DHT22;23049;54.304;8.826;2022-12-18T04:53:36;-2.60;99.90
32769;DHT22;23049;54.304;8.826;2022-12-18T04:56:08;-2.60;99.90
32769;DHT22;23049;54.304;8.826;2022-12-18T04:58:35;-2.50;99.90
32769;DHT22;23049;54.304;8.826;2022-12-18T05:01:01;-2.50;99.90
32769;DHT22;23049;54.304;8.826;2022-12-18T05:03:26;-2.50;99.90
32769;DHT22;23049;54.304;8.826;2022-12-18T05:05:52;-2.50;99.90
32769;DHT22;23049;54.304;8.826;2022-12-18T05:08:18;-2.50;99.90
32769;DHT22;23049;54.304;8.826;2022-12-18T05:10:44;-2.50;99.90
32769;DHT22;23049;54.304;8.826;2022-12-18T05:13:09;-2.50;99.90
32769;DHT22;23049;54.304;8.826;2022-12-18T05:15:35;-2.50;99.90
32769;DHT22;23049;54.304;8.826;2022-12-18T05:18:00;-2.50;99.90
32769;DHT22;23049;54.304;8.826;2022-12-18T05:20:26;-2.60;99.90
32769;DHT22;23049;54.304;8.826;2022-12-18T05:22:52;-2.50;99.90
32769;DHT22;23049;54.304;8.826;2022-12-18T05:25:18;-2.40;99.90
32769;DHT22;23049;54.304;8.826;2022-12-18T05:27:44;-2.40;99.90
32769;DHT22;23049;54.304;8.826;2022-12-18T05:30:10;-2.40;99.90
32769;DHT22;23049;54.304;8.826;2022-12-18T05:32:36;-2.50;99.90
32769;DHT22;23049;54.304;8.826;2022-12-18T05:35:01;-2.50;99.90
32769;DHT22;23049;54.304;8.826;2022-12-18T05:37:27;-2.60;99.90
32769;DHT22;23049;54.304;8.826;2022-12-18T05:39:53;-2.60;99.90
32769;DHT22;23049;54.304;8.826;2022-12-18T05:42:18;-2.70;99.90
32769;DHT22;23049;54.304;8.826;2022-12-18T05:44:44;-2.80;99.90
32769;DHT22;23049;54.304;8.826;2022-12-18T05:47:09;-2.80;99.90
32769;DHT22;23049;54.304;8.826;2022-12-18T05:49:35;-2.90;99.90
32769;DHT22;23049;54.304;8.826;2022-12-18T05:52:00;-2.90;99.90
32769;DHT22;23049;54.304;8.826;2022-12-18T05:54:28;-3.00;99.90
32769;DHT22;23049;54.304;8.826;2022-12-18T05:56:54;-2.90;99.90
32769;DHT22;23049;54.304;8.826;2022-12-18T05:59:19;-2.90;99.90
32769;DHT22;23049;54.304;8.826;2022-12-18T06:01:45;-2.90;99.90
32769;DHT22;23049;54.304;8.826;2022-12-18T06:04:11;-2.90;99.90
32769;DHT22;23049;54.304;8.826;2022-12-18T06:06:36;-2.80;99.90
32769;DHT22;23049;54.304;8.826;2022-12-18T06:09:02;-2.70;99.90
32769;DHT22;23049;54.304;8.826;2022-12-18T06:11:34;-2.70;99.90
32769;DHT22;23049;54.304;8.826;2022-12-18T06:13:59;-2.70;99.90
32769;DHT22;23049;54.304;8.826;2022-12-18T06:16:25;-2.60;99.90
32769;DHT22;23049;54.304;8.826;2022-12-18T06:18:51;-2.60;99.90
32769;DHT22;23049;54.304;8.826;2022-12-18T06:21:17;-2.70;99.90
32769;DHT22;23049;54.304;8.826;2022-12-18T06:23:42;-2.70;99.90
32769;DHT22;23049;54.304;8.826;2022-12-18T06:26:09;-2.80;99.90
32769;DHT22;23049;54.304;8.826;2022-12-18T06:28:35;-2.80;99.90
32769;DHT22;23049;54.304;8.826;2022-12-18T06:31:02;-2.90;99.90
32769;DHT22;23049;54.304;8.826;2022-12-18T06:33:27;-2.90;99.90
32769;DHT22;23049;54.304;8.826;2022-12-18T06:35:53;-2.90;99.90
32769;DHT22;23049;54.304;8.826;2022-12-18T06:38:19;-2.80;99.90
32769;DHT22;23049;54.304;8.826;2022-12-18T06:40:45;-2.70;99.90
32769;DHT22;23049;54.304;8.826;2022-12-18T06:43:10;-2.60;99.90
32769;DHT22;23049;54.304;8.826;2022-12-18T06:45:35;-2.50;99.90
32769;DHT22;23049;54.304;8.826;2022-12-18T06:48:01;-2.50;99.90
32769;DHT22;23049;54.304;8.826;2022-12-18T06:50:27;-2.50;99.90
32769;DHT22;23049;54.304;8.826;2022-12-18T06:52:52;-2.40;99.90
32769;DHT22;23049;54.304;8.826;2022-12-18T06:55:18;-2.30;99.90
32769;DHT22;23049;54.304;8.826;2022-12-18T06:57:43;-2.30;99.90
32769;DHT22;23049;54.304;8.826;2022-12-18T07:00:10;-2.30;99.90
32769;DHT22;23049;54.304;8.826;2022-12-18T07:02:36;-2.30;99.90
32769;DHT22;23049;54.304;8.826;2022-12-18T07:05:02;-2.10;99.90
32769;DHT22;23049;54.304;8.826;2022-12-18T07:07:27;-2.10;99.90
32769;DHT22;23049;54.304;8.826;2022-12-18T07:09:53;-2.10;99.90
32769;DHT22;23049;54.304;8.826;2022-12-18T07:12:18;-2.00;99.90
32769;DHT22;23049;54.304;8.826;2022-12-18T07:14:44;-2.00;99.90
32769;DHT22;23049;54.304;8.826;2022-12-18T07:17:09;-2.00;99.90
32769;DHT22;23049;54.304;8.826;2022-12-18T07:19:35;-2.00;99.90
32769;DHT22;23049;54.304;8.826;2022-12-18T07:22:00;-1.90;99.90
32769;DHT22;23049;54.304;8.826;2022-12-18T07:24:26;-1.90;99.90
32769;DHT22;23049;54.304;8.826;2022-12-18T07:26:52;-1.90;99.90
32769;DHT22;23049;54.304;8.826;2022-12-18T07:29:17;-2.00;99.90
32769;DHT22;23049;54.304;8.826;2022-12-18T07:31:43;-1.90;99.90
32769;DHT22;23049;54.304;8.826;2022-12-18T07:34:12;-1.90;99.90
32769;DHT22;23049;54.304;8.826;2022-12-18T07:36:38;-2.00;99.90
32769;DHT22;23049;54.304;8.826;2022-12-18T07:39:04;-1.90;99.90
32769;DHT22;23049;54.304;8.826;2022-12-18T07:41:29;-1.90;99.90
32769;DHT22;23049;54.304;8.826;2022-12-18T07:43:55;-1.90;99.90
32769;DHT22;23049;54.304;8.826;2022-12-18T07:46:20;-1.90;99.90
32769;DHT22;23049;54.304;8.826;2022-12-18T07:48:46;-1.90;99.90
32769;DHT22;23049;54.304;8.826;2022-12-18T07:51:12;-2.00;99.90
32769;DHT22;23049;54.304;8.826;2022-12-18T07:53:37;-2.10;99.90
32769;DHT22;23049;54.304;8.826;2022-12-18T07:56:04;-2.30;99.90
32769;DHT22;23049;54.304;8.826;2022-12-18T07:58:30;-2.40;99.90
32769;DHT22;23049;54.304;8.826;2022-12-18T08:01:06;-2.60;99.90
32769;DHT22;23049;54.304;8.826;2022-12-18T08:03:31;-2.70;99.90
32769;DHT22;23049;54.304;8.826;2022-12-18T08:06:00;-2.70;99.90
32769;DHT22;23049;54.304;8.826;2022-12-18T08:08:26;-2.80;99.90
32769;DHT22;23049;54.304;8.826;2022-12-18T08:10:52;-2.70;99.90
32769;DHT22;23049;54.304;8.826;2022-12-18T08:13:17;-2.80;99.90
32769;DHT22;23049;54.304;8.826;2022-12-18T08:15:43;-2.80;99.90
32769;DHT22;23049;54.304;8.826;2022-12-18T08:18:08;-2.80;99.90
32769;DHT22;23049;54.304;8.826;2022-12-18T08:20:34;-2.80;99.90
32769;DHT22;23049;54.304;8.826;2022-12-18T08:22:59;-2.90;99.90
32769;DHT22;23049;54.304;8.826;2022-12-18T08:25:25;-2.90;99.90
32769;DHT22;23049;54.304;8.826;2022-12-18T08:27:50;-3.00;99.90
32769;DHT22;23049;54.304;8.826;2022-12-18T08:30:16;-3.10;99.90
32769;DHT22;23049;54.304;8.826;2022-12-18T08:32:42;-3.00;99.90
32769;DHT22;23049;54.304;8.826;2022-12-18T08:35:07;-3.10;99.90
32769;DHT22;23049;54.304;8.826;2022-12-18T08:37:33;-3.10;99.90
32769;DHT22;23049;54.304;8.826;2022-12-18T08:39:59;-3.10;99.90
32769;DHT22;23049;54.304;8.826;2022-12-18T08:42:24;-3.20;99.90
32769;DHT22;23049;54.304;8.826;2022-12-18T08:45:08;-3.20;99.90
32769;DHT22;23049;54.304;8.826;2022-12-18T08:47:34;-3.20;99.90
32769;DHT22;23049;54.304;8.826;2022-12-18T08:49:59;-3.20;99.90
32769;DHT22;23049;54.304;8.826;2022-12-18T08:52:25;-3.20;99.90
32769;DHT22;23049;54.304;8.826;2022-12-18T08:54:50;-3.20;99.90
32769;DHT22;23049;54.304;8.826;2022-12-18T08:57:16;-3.20;99.90
32769;DHT22;23049;54.304;8.826;2022-12-18T08:59:41;-3.30;99.90
32769;DHT22;23049;54.304;8.826;2022-12-18T09:02:09;-3.30;99.90
32769;DHT22;23049;54.304;8.826;2022-12-18T09:04:35;-3.30;99.90
32769;DHT22;23049;54.304;8.826;2022-12-18T09:07:00;-3.40;99.90
32769;DHT22;23049;54.304;8.826;2022-12-18T09:09:26;-3.40;99.90
32769;DHT22;23049;54.304;8.826;2022-12-18T09:11:51;-3.40;99.90
32769;DHT22;23049;54.304;8.826;2022-12-18T09:14:16;-3.40;99.90
32769;DHT22;23049;54.304;8.826;2022-12-18T09:16:42;-3.40;99.90
32769;DHT22;23049;54.304;8.826;2022-12-18T09:19:08;-3.40;99.90
32769;DHT22;23049;54.304;8.826;2022-12-18T09:21:37;-3.40;99.90
32769;DHT22;23049;54.304;8.826;2022-12-18T09:24:04;-3.50;99.90
32769;DHT22;23049;54.304;8.826;2022-12-18T09:26:30;-3.50;99.90
32769;DHT22;23049;54.304;8.826;2022-12-18T09:28:55;-3.20;99.90
32769;DHT22;23049;54.304;8.826;2022-12-18T09:31:21;-3.10;99.90
32769;DHT22;23049;54.304;8.826;2022-12-18T09:33:47;-3.30;99.90
32769;DHT22;23049;54.304;8.826;2022-12-18T09:36:15;-3.40;99.90
32769;DHT22;23049;54.304;8.826;2022-12-18T09:38:40;-3.40;99.90
32769;DHT22;23049;54.304;8.826;2022-12-18T09:43:45;-3.40;99.90
32769;DHT22;23049;54.304;8.826;2022-12-18T09:46:14;-3.30;99.90
32769;DHT22;23049;54.304;8.826;2022-12-18T09:48:42;-3.50;99.90
32769;DHT22;23049;54.304;8.826;2022-12-18T09:51:17;-3.50;99.90
32769;DHT22;23049;54.304;8.826;2022-12-18T09:54:03;-3.60;99.90
32769;DHT22;23049;54.304;8.826;2022-12-18T09:56:31;-3.60;99.90
32769;DHT22;23049;54.304;8.826;2022-12-18T09:59:00;-3.60;99.90
32769;DHT22;23049;54.304;8.826;2022-12-18T10:01:26;-3.60;99.90
32769;DHT22;23049;54.304;8.826;2022-12-18T10:03:52;-3.60;99.90
32769;DHT22;23049;54.304;8.826;2022-12-18T10:06:30;-3.40;99.90
32769;DHT22;23049;54.304;8.826;2022-12-18T10:09:02;-3.40;99.90
32769;DHT22;23049;54.304;8.826;2022-12-18T10:14:09;-3.20;99.90
32769;DHT22;23049;54.304;8.826;2022-12-18T10:27:34;-3.10;99.90
32769;DHT22;23049;54.304;8.826;2022-12-18T10:29:59;-3.00;99.90
32769;DHT22;23049;54.304;8.826;2022-12-18T10:32:27;-2.90;99.90
32769;DHT22;23049;54.304;8.826;2022-12-18T10:34:54;-2.80;99.90
32769;DHT22;23049;54.304;8.826;2022-12-18T10:37:21;-2.70;99.90
32769;DHT22;23049;54.304;8.826;2022-12-18T10:42:31;-2.70;99.90
32769;DHT22;23049;54.304;8.826;2022-12-18T10:45:01;-2.60;99.90
32769;DHT22;23049;54.304;8.826;2022-12-18T10:47:27;-2.60;99.90
32769;DHT22;23049;54.304;8.826;2022-12-18T10:49:52;-2.60;99.90
32769;DHT22;23049;54.304;8.826;2022-12-18T10:52:19;-2.60;99.90
32769;DHT22;23049;54.304;8.826;2022-12-18T10:54:49;-2.50;99.90
32769;DHT22;23049;54.304;8.826;2022-12-18T10:57:16;-2.40;99.90
32769;DHT22;23049;54.304;8.826;2022-12-18T10:59:52;-2.40;99.90
32769;DHT22;23049;54.304;8.826;2022-12-18T11:02:39;-2.40;99.90
32769;DHT22;23049;54.304;8.826;2022-12-18T11:08:12;-2.40;99.90
32769;DHT22;23049;54.304;8.826;2022-12-18T11:10:45;-2.30;99.90
32769;DHT22;23049;54.304;8.826;2022-12-18T11:13:15;-2.20;99.90
32769;DHT22;23049;54.304;8.826;2022-12-18T11:15:41;-2.20;99.90
32769;DHT22;23049;54.304;8.826;2022-12-18T11:18:17;-2.10;99.90
32769;DHT22;23049;54.304;8.826;2022-12-18T11:20:49;-2.10;99.90
32769;DHT22;23049;54.304;8.826;2022-12-18T11:23:15;-2.10;99.90
32769;DHT22;23049;54.304;8.826;2022-12-18T11:25:41;-2.10;99.90
32769;DHT22;23049;54.304;8.826;2022-12-18T11:28:26;-2.10;99.90
32769;DHT22;23049;54.304;8.826;2022-12-18T11:34:00;-2.10;99.90
32769;DHT22;23049;54.304;8.826;2022-12-18T11:36:28;-2.20;99.90
32769;DHT22;23049;54.304;8.826;2022-12-18T11:38:54;-2.30;99.90
32769;DHT22;23049;54.304;8.826;2022-12-18T11:43:55;-2.40;99.90
32769;DHT22;23049;54.304;8.826;2022-12-18T11:46:38;-2.40;99.90
32769;DHT22;23049;54.304;8.826;2022-12-18T11:49:07;-2.50;99.90
32769;DHT22;23049;54.304;8.826;2022-12-18T11:51:41;-2.50;99.90
32769;DHT22;23049;54.304;8.826;2022-12-18T11:54:15;-2.60;99.90
32769;DHT22;23049;54.304;8.826;2022-12-18T11:56:46;-2.60;99.90
32769;DHT22;23049;54.304;8.826;2022-12-18T11:59:48;-2.70;99.90
32769;DHT22;23049;54.304;8.826;2022-12-18T12:14:47;-2.80;99.90
32769;DHT22;23049;54.304;8.826;2022-12-18T12:22:24;-2.60;99.90
32769;DHT22;23049;54.304;8.826;2022-12-18T12:25:37;-2.60;99.90
32769;DHT22;23049;54.304;8.826;2022-12-18T12:30:18;-2.60;99.90
32769;DHT22;23049;54.304;8.826;2022-12-18T12:40:20;-2.70;99.90
32769;DHT22;23049;54.304;8.826;2022-12-18T12:42:50;-2.70;99.90
32769;DHT22;23049;54.304;8.826;2022-12-18T12:45:37;-2.60;99.90
32769;DHT22;23049;54.304;8.826;2022-12-18T12:48:04;-2.50;99.90
32769;DHT22;23049;54.304;8.826;2022-12-18T12:50:32;-2.50;99.90
32769;DHT22;23049;54.304;8.826;2022-12-18T12:52:59;-2.50;99.90
32769;DHT22;23049;54.304;8.826;2022-12-18T12:55:26;-2.40;99.90
32769;DHT22;23049;54.304;8.826;2022-12-18T12:58:07;-2.40;99.90
32769;DHT22;23049;54.304;8.826;2022-12-18T13:00:39;-2.40;99.90
32769;DHT22;23049;54.304;8.826;2022-12-18T13:03:24;-2.40;99.90
32769;DHT22;23049;54.304;8.826;2022-12-18T13:05:54;-2.40;99.90
32769;DHT22;23049;54.304;8.826;2022-12-18T13:08:24;-2.40;99.90
32769;DHT22;23049;54.304;8.826;2022-12-18T13:10:50;-2.40;99.90
32769;DHT22;23049;54.304;8.826;2022-12-18T13:13:55;-2.40;99.90
32769;DHT22;23049;54.304;8.826;2022-12-18T13:16:22;-2.40;99.90
32769;DHT22;23049;54.304;8.826;2022-12-18T13:18:51;-2.40;99.90
32769;DHT22;23049;54.304;8.826;2022-12-18T13:21:21;-2.40;99.90
32769;DHT22;23049;54.304;8.826;2022-12-18T13:23:49;-2.40;99.90
32769;DHT22;23049;54.304;8.826;2022-12-18T13:31:12;-2.60;99.90
32769;DHT22;23049;54.304;8.826;2022-12-18T13:33:39;-2.50;99.90
32769;DHT22;23049;54.304;8.826;2022-12-18T13:38:40;-2.50;99.90
32769;DHT22;23049;54.304;8.826;2022-12-18T13:43:47;-2.40;99.90
32769;DHT22;23049;54.304;8.826;2022-12-18T13:48:58;-2.40;99.90
32769;DHT22;23049;54.304;8.826;2022-12-18T13:51:25;-2.40;99.90
32769;DHT22;23049;54.304;8.826;2022-12-18T13:53:52;-2.40;99.90
32769;DHT22;23049;54.304;8.826;2022-12-18T13:56:22;-2.40;99.90
32769;DHT22;23049;54.304;8.826;2022-12-18T14:01:32;-2.30;99.90
32769;DHT22;23049;54.304;8.826;2022-12-18T14:04:10;-2.30;99.90
32769;DHT22;23049;54.304;8.826;2022-12-18T14:06:36;-2.30;99.90
32769;DHT22;23049;54.304;8.826;2022-12-18T14:09:02;-2.20;99.90
32769;DHT22;23049;54.304;8.826;2022-12-18T14:11:27;-2.20;99.90
32769;DHT22;23049;54.304;8.826;2022-12-18T14:13:54;-2.20;99.90
32769;DHT22;23049;54.304;8.826;2022-12-18T14:16:20;-2.10;99.90
32769;DHT22;23049;54.304;8.826;2022-12-18T14:18:46;-2.20;99.90
32769;DHT22;23049;54.304;8.826;2022-12-18T14:21:21;-2.20;99.90
32769;DHT22;23049;54.304;8.826;2022-12-18T14:23:47;-2.20;99.90
32769;DHT22;23049;54.304;8.826;2022-12-18T14:26:26;-2.20;99.90
32769;DHT22;23049;54.304;8.826;2022-12-18T14:28:55;-2.10;99.90
32769;DHT22;23049;54.304;8.826;2022-12-18T14:31:28;-2.20;99.90
32769;DHT22;23049;54.304;8.826;2022-12-18T14:33:53;-2.10;99.90
32769;DHT22;23049;54.304;8.826;2022-12-18T14:36:23;-2.10;99.90
32769;DHT22;23049;54.304;8.826;2022-12-18T14:38:50;-2.10;99.90
32769;DHT22;23049;54.304;8.826;2022-12-18T14:41:16;-2.10;99.90
32769;DHT22;23049;54.304;8.826;2022-12-18T14:43:43;-2.20;99.90
32769;DHT22;23049;54.304;8.826;2022-12-18T14:48:53;-2.20;99.90
32769;DHT22;23049;54.304;8.826;2022-12-18T14:51:22;-2.20;99.90
32769;DHT22;23049;54.304;8.826;2022-12-18T14:56:21;-2.20;99.90
32769;DHT22;23049;54.304;8.826;2022-12-18T14:58:52;-2.20;99.90
32769;DHT22;23049;54.304;8.826;2022-12-18T15:01:22;-2.20;99.90
32769;DHT22;23049;54.304;8.826;2022-12-18T15:03:50;-2.20;99.90
32769;DHT22;23049;54.304;8.826;2022-12-18T15:06:48;-2.20;99.90
32769;DHT22;23049;54.304;8.826;2022-12-18T15:09:25;-2.10;99.90
32769;DHT22;23049;54.304;8.826;2022-12-18T15:11:55;-2.10;99.90
32769;DHT22;23049;54.304;8.826;2022-12-18T15:14:21;-2.10;99.90
32769;DHT22;23049;54.304;8.826;2022-12-18T15:16:51;-2.00;99.90
32769;DHT22;23049;54.304;8.826;2022-12-18T15:19:17;-2.00;99.90
32769;DHT22;23049;54.304;8.826;2022-12-18T15:21:43;-2.00;99.90
32769;DHT22;23049;54.304;8.826;2022-12-18T15:24:16;-2.00;99.90
32769;DHT22;23049;54.304;8.826;2022-12-18T15:26:42;-1.90;99.90
32769;DHT22;23049;54.304;8.826;2022-12-18T15:29:15;-1.90;99.90
32769;DHT22;23049;54.304;8.826;2022-12-18T15:31:42;-1.90;99.90
32769;DHT22;23049;54.304;8.826;2022-12-18T15:36:33;-1.90;99.90
32769;DHT22;23049;54.304;8.826;2022-12-18T15:39:01;-1.90;99.90
32769;DHT22;23049;54.304;8.826;2022-12-18T15:41:28;-1.90;99.90
32769;DHT22;23049;54.304;8.826;2022-12-18T15:43:54;-1.90;99.90
32769;DHT22;23049;54.304;8.826;2022-12-18T15:46:20;-1.80;99.90
32769;DHT22;23049;54.304;8.826;2022-12-18T15:48:49;-1.80;99.90
32769;DHT22;23049;54.304;8.826;2022-12-18T15:51:16;-1.80;99.90
32769;DHT22;23049;54.304;8.826;2022-12-18T15:53:42;-1.70;99.90
32769;DHT22;23049;54.304;8.826;2022-12-18T15:56:11;-1.70;99.90
32769;DHT22;23049;54.304;8.826;2022-12-18T15:58:56;-1.60;99.90
32769;DHT22;23049;54.304;8.826;2022-12-18T16:01:22;-1.60;99.90
32769;DHT22;23049;54.304;8.826;2022-12-18T16:03:48;-1.60;99.90
32769;DHT22;23049;54.304;8.826;2022-12-18T16:06:13;-1.60;99.90
32769;DHT22;23049;54.304;8.826;2022-12-18T16:08:39;-1.60;99.90
32769;DHT22;23049;54.304;8.826;2022-12-18T16:11:04;-1.60;99.90
32769;DHT22;23049;54.304;8.826;2022-12-18T16:13:30;-1.50;99.90
32769;DHT22;23049;54.304;8.826;2022-12-18T16:15:56;-1.50;99.90
32769;DHT22;23049;54.304;8.826;2022-12-18T16:18:21;-1.50;99.90
32769;DHT22;23049;54.304;8.826;2022-12-18T16:20:47;-1.50;99.90
32769;DHT22;23049;54.304;8.826;2022-12-18T16:23:13;-1.50;99.90
32769;DHT22;23049;54.304;8.826;2022-12-18T16:25:38;-1.50;99.90
32769;DHT22;23049;54.304;8.826;2022-12-18T16:28:04;-1.50;99.90
32769;DHT22;23049;54.304;8.826;2022-12-18T16:30:30;-1.40;99.90
32769;DHT22;23049;54.304;8.826;2022-12-18T16:32:56;-1.50;99.90
32769;DHT22;23049;54.304;8.826;2022-12-18T16:35:22;-1.60;99.90
32769;DHT22;23049;54.304;8.826;2022-12-18T16:37:47;-1.50;99.90
32769;DHT22;23049;54.304;8.826;2022-12-18T16:40:14;-1.50;99.90
32769;DHT22;23049;54.304;8.826;2022-12-18T16:42:40;-1.60;99.90
32769;DHT22;23049;54.304;8.826;2022-12-18T16:45:06;-1.60;99.90
32769;DHT22;23049;54.304;8.826;2022-12-18T16:47:32;-1.60;99.90
32769;DHT22;23049;54.304;8.826;2022-12-18T16:49:58;-1.60;99.90
32769;DHT22;23049;54.304;8.826;2022-12-18T16:52:23;-1.60;99.90
32769;DHT22;23049;54.304;8.826;2022-12-18T16:54:49;-1.60;99.90
32769;DHT22;23049;54.304;8.826;2022-12-18T16:57:15;-1.60;99.90
32769;DHT22;23049;54.304;8.826;2022-12-18T16:59:41;-1.60;99.90
32769;DHT22;23049;54.304;8.826;2022-12-18T17:02:13;-1.60;99.90
32769;DHT22;23049;54.304;8.826;2022-12-18T17:04:40;-1.60;99.90
32769;DHT22;23049;54.304;8.826;2022-12-18T17:07:06;-1.60;99.90
32769;DHT22;23049;54.304;8.826;2022-12-18T17:09:31;-1.60;99.90
32769;DHT22;23049;54.304;8.826;2022-12-18T17:11:57;-1.70;99.90
32769;DHT22;23049;54.304;8.826;2022-12-18T17:14:23;-1.70;99.90
32769;DHT22;23049;54.304;8.826;2022-12-18T17:16:49;-1.70;99.90
32769;DHT22;23049;54.304;8.826;2022-12-18T17:19:15;-1.70;99.90
32769;DHT22;23049;54.304;8.826;2022-12-18T17:21:41;-1.60;99.90
32769;DHT22;23049;54.304;8.826;2022-12-18T17:24:07;-1.70;99.90